Devils Lake, ND (58301)

8:09 PM CDT on August 29, 2016 (GMT -0500)
Lincoln ave ne | | Change Station

Elev 1437 ft 48.11 °N, 98.87 °W | Updated 12 minutes ago

Clear
Clear
70.3 °F
Feels Like 77 °F
N
2.7
Wind Variable Wind from NW

Today
High -- | Low -- °F
--% Chance of Precip.
Yesterday
High -- | Low -- °F
Precip. -- in
Pressure 30.25 in
Visibility 10.0 miles
Clouds Clear
Heat Index 77 °F
Dew Point 52 °F
Humidity 52%
Rainfall 0.00 in
Snow Depth Not available.
6:49 AM 8:21 PM
Waning Crescent, 6% visible
METAR KDVL 300056Z AUTO 34006KT 10SM CLR 20/11 A3021 RMK AO2 SLP244 T02000111
Pressure 30.25 in
Visibility 10.0 miles
Clouds Clear
Heat Index 77 °F
Dew Point 52 °F
Humidity 52%
Rainfall 0.00 in
Snow Depth Not available.
6:49 AM 8:21 PM
Waning Crescent, 6% visible
METAR KDVL 300056Z AUTO 34006KT 10SM CLR 20/11 A3021 RMK AO2 SLP244 T02000111

10-Day Weather Forecast

Almanac

Astronomy

Aug. 29, 2016 Rise Set
Actual Time
Civil Twilight
Nautical Twilight
Astronomical Twilight
Moon
Length of Visible Light
Length of Day
Tomorrow will be .
, % of the Moon is Illuminated

Today's Extremes

State Highs State Lows

Community

WunderPhotos

Upload Photos

1,935,709 photos uploaded!

WunderBlog® & News

Nearby

Air Quality

  Air Quality AQ Index Pollutant
Not available.

Snow Depth

Station Depth Elevation

Earthquake Activity

City Distance Mag. Time & Date
Minimum magnitude displayed is 2.5.

Coastal Water Temperatures

Place Temperature

Stations

Nearby Weather Stations

Station Location Temp. Windchill Dew Point Humidity Wind Precip. Elev Updated Type
                   

Watches & Warnings

There are currently no watches in effect.